Time;durP1;ratioP1;P1;durP2;ratioP2;P2;SDS_P1;SDS_P2;PMS_P1;PMS_P2;Temp;Humidity;BMP_temperature;BMP_pressure;BME280_temperature;BME280_humidity;BME280_pressure;Samples;Min_cycle;Max_cycle;Signal;HPM_P1;HPM_P2
2021/11/16 00:00:19;;;;;;;35.50;14.77;;;;;;;14.55;49.09;102214.50;5054857;28;20395;-62
2021/11/16 00:02:45;;;;;;;36.15;15.23;;;;;;;14.60;49.35;102222.22;5053442;28;20029;-62
2021/11/16 00:05:10;;;;;;;41.78;16.63;;;;;;;14.48;50.09;102213.28;5055307;28;20375;-62
2021/11/16 00:07:36;;;;;;;35.80;15.02;;;;;;;14.60;48.96;102222.22;5036929;28;20021;-62
2021/11/16 00:10:03;;;;;;;33.88;15.45;;;;;;;14.60;48.45;102218.69;5054926;28;20382;-62
2021/11/16 00:12:28;;;;;;;34.92;14.75;;;;;;;14.62;48.35;102219.41;5053447;28;20094;-62
2021/11/16 00:14:53;;;;;;;35.83;15.40;;;;;;;14.62;49.19;102219.41;5054458;28;20029;-62
2021/11/16 00:17:19;;;;;;;34.85;15.35;;;;;;;14.64;50.03;102217.44;5053033;28;20480;-62
2021/11/16 00:19:47;;;;;;;35.55;16.55;;;;;;;14.58;49.38;102206.16;5052725;28;20112;-62
2021/11/16 00:22:17;;;;;;;32.45;14.20;;;;;;;14.66;49.81;102216.34;5054458;28;20025;-62
2021/11/16 00:27:29;;;;;;;34.03;15.88;;;;;;;14.67;48.87;102214.50;5043435;28;20080;-62
2021/11/16 00:29:54;;;;;;;41.60;16.02;;;;;;;14.67;48.91;102207.28;5052562;28;20020;-62
2021/11/16 00:32:20;;;;;;;34.17;15.25;;;;;;;14.66;49.11;102202.84;5054381;28;20134;-62
2021/11/16 00:34:45;;;;;;;30.85;15.43;;;;;;;14.64;48.73;102201.25;5054269;28;20025;-62
2021/11/16 00:37:10;;;;;;;36.08;15.13;;;;;;;14.65;48.74;102200.28;5053236;28;20385;-62
2021/11/16 00:39:36;;;;;;;37.75;16.02;;;;;;;14.64;49.52;102195.88;5053154;28;20029;-62
2021/11/16 00:42:01;;;;;;;36.67;15.63;;;;;;;14.66;49.48;102199.28;5053220;28;20086;-62
2021/11/16 00:44:27;;;;;;;32.22;14.40;;;;;;;14.65;49.47;102203.84;5053055;28;20110;-62
2021/11/16 00:46:52;;;;;;;34.33;16.63;;;;;;;14.66;49.10;102199.28;5054194;28;20021;-61
2021/11/16 00:49:18;;;;;;;35.28;15.63;;;;;;;14.66;48.89;102199.28;5053165;28;20025;-62
2021/11/16 00:51:44;;;;;;;34.20;15.57;;;;;;;14.64;49.21;102201.25;5052937;28;20028;-62
2021/11/16 00:54:09;;;;;;;40.50;16.40;;;;;;;14.65;49.46;102197.59;5055258;28;20436;-61
2021/11/16 00:56:35;;;;;;;37.40;16.05;;;;;;;14.66;49.25;102202.00;5036598;28;20069;-62
2021/11/16 00:59:00;;;;;;;38.33;16.08;;;;;;;14.64;49.58;102190.47;5053942;28;20575;-62
2021/11/16 01:01:25;;;;;;;38.45;16.00;;;;;;;14.65;49.86;102193.06;5054203;28;20025;-62
2021/11/16 01:03:51;;;;;;;40.10;15.48;;;;;;;14.69;49.66;102193.66;5054098;28;20067;-62
2021/11/16 01:06:16;;;;;;;37.50;16.48;;;;;;;14.69;48.41;102199.91;5053772;28;20024;-62
2021/11/16 01:08:42;;;;;;;40.17;16.67;;;;;;;14.71;50.12;102203.38;5053843;28;20025;-62
2021/11/16 01:11:07;;;;;;;35.97;16.85;;;;;;;14.70;49.01;102204.34;5054000;28;20453;-62
2021/11/16 01:13:34;;;;;;;36.08;15.93;;;;;;;14.70;49.35;102190.84;5052748;28;20020;-62
2021/11/16 01:16:00;;;;;;;39.33;15.27;;;;;;;14.69;49.27;102194.53;5052956;28;20071;-62
2021/11/16 01:18:26;;;;;;;36.67;15.20;;;;;;;14.72;49.44;102193.41;5054178;28;20575;-62
2021/11/16 01:20:52;;;;;;;36.70;15.80;;;;;;;14.73;48.51;102197.84;5053657;28;20155;-62
2021/11/16 01:23:18;;;;;;;35.55;14.85;;;;;;;14.69;49.32;102188.25;5053053;28;20178;-62
2021/11/16 01:25:45;;;;;;;34.47;15.43;;;;;;;14.74;49.42;102194.19;5036043;28;20032;-62
2021/11/16 01:28:12;;;;;;;40.08;15.10;;;;;;;14.74;48.29;102195.00;5052610;28;20032;-61
2021/11/16 01:30:41;;;;;;;38.83;15.88;;;;;;;14.69;48.65;102188.25;5053915;28;20029;-62
2021/11/16 01:33:12;;;;;;;38.78;16.20;;;;;;;14.74;48.37;102194.19;5054020;28;20025;-62
2021/11/16 01:35:38;;;;;;;39.78;15.98;;;;;;;14.73;48.63;102189.75;5052669;28;20025;-62
2021/11/16 01:38:05;;;;;;;35.50;15.65;;;;;;;14.72;49.23;102193.41;5052687;28;20020;-61
2021/11/16 01:40:31;;;;;;;39.38;15.90;;;;;;;14.68;49.68;102181.19;5036007;28;20427;-62
2021/11/16 01:42:56;;;;;;;30.77;13.80;;;;;;;14.71;49.59;102181.78;5038228;28;20086;-62
2021/11/16 01:45:23;;;;;;;35.88;17.15;;;;;;;14.67;49.64;102174.06;5056469;28;20025;-62
2021/11/16 01:47:49;;;;;;;37.80;17.85;;;;;;;14.71;49.83;102176.41;5057855;28;20033;-62
2021/11/16 01:50:16;;;;;;;40.70;16.25;;;;;;;14.71;49.57;102187.19;5057461;28;20488;-61
2021/11/16 01:52:42;;;;;;;36.63;14.90;;;;;;;14.69;49.93;102172.09;5056398;28;20513;-62
2021/11/16 01:55:10;;;;;;;42.10;16.35;;;;;;;14.71;49.84;102175.53;5038839;28;20063;-62
2021/11/16 01:57:36;;;;;;;37.22;16.42;;;;;;;14.69;49.80;102167.56;5055895;28;20025;-62
2021/11/16 02:00:04;;;;;;;35.40;15.60;;;;;;;14.68;48.65;102171.25;5055857;28;20538;-62
2021/11/16 02:02:30;;;;;;;37.20;15.75;;;;;;;14.65;48.87;102170.63;5057107;28;20024;-62
2021/11/16 02:04:55;;;;;;;34.05;16.10;;;;;;;14.65;48.66;102165.22;5057238;28;20021;-62
2021/11/16 02:07:20;;;;;;;33.72;14.52;;;;;;;14.67;50.20;102168.66;5057344;28;20029;-62
2021/11/16 02:09:46;;;;;;;31.80;15.52;;;;;;;14.66;48.36;102162.41;5057509;28;20020;-62
2021/11/16 02:12:11;;;;;;;38.42;16.20;;;;;;;14.65;49.76;102162.53;5057086;28;20503;-62
2021/11/16 02:14:37;;;;;;;40.83;15.73;;;;;;;14.54;50.09;102148.06;5057417;28;20110;-62
2021/11/16 02:17:03;;;;;;;36.95;15.77;;;;;;;14.63;48.92;102156.41;5056981;28;20025;-61
2021/11/16 02:19:28;;;;;;;42.85;18.13;;;;;;;14.63;48.67;102156.41;5057222;28;20112;-61
2021/11/16 02:21:54;;;;;;;36.40;15.95;;;;;;;14.62;48.78;102149.31;5056930;28;20053;-61
2021/11/16 02:24:19;;;;;;;33.22;15.98;;;;;;;14.64;48.52;102147.31;5056903;28;20024;-62
2021/11/16 02:26:45;;;;;;;36.00;16.05;;;;;;;14.60;48.60;102145.88;5056802;28;20029;-62
2021/11/16 02:29:10;;;;;;;32.88;15.40;;;;;;;14.62;48.89;102143.91;5056723;28;20033;-62
2021/11/16 02:31:36;;;;;;;36.85;15.77;;;;;;;14.64;48.38;102147.31;5056953;28;20108;-62
2021/11/16 02:34:03;;;;;;;33.83;16.02;;;;;;;14.64;48.94;102134.69;5055498;28;20473;-62
2021/11/16 02:36:31;;;;;;;34.72;15.75;;;;;;;14.65;49.48;102132.88;5056437;28;20115;-62
2021/11/16 02:38:56;;;;;;;43.60;17.15;;;;;;;14.65;49.44;102132.88;5055048;28;20037;-62
2021/11/16 02:41:23;;;;;;;37.53;15.68;;;;;;;14.69;49.81;102139.72;5055156;28;20028;-61
2021/11/16 02:43:49;;;;;;;38.67;15.27;;;;;;;14.57;48.98;102115.44;5056563;28;20035;-61
2021/11/16 02:46:14;;;;;;;35.38;15.85;;;;;;;14.58;49.76;102119.00;5054887;28;20593;-62
2021/11/16 02:48:39;;;;;;;39.78;15.30;;;;;;;14.69;48.63;102135.19;5055976;28;20029;-62
2021/11/16 02:51:11;;;;;;;41.53;17.05;;;;;;;14.57;49.58;102125.41;5055079;28;20458;-62
2021/11/16 02:53:38;;;;;;;35.92;15.27;;;;;;;14.57;48.45;102120.00;5038560;28;20044;-62
2021/11/16 02:56:05;;;;;;;37.97;16.13;;;;;;;14.68;48.80;102133.50;5056138;28;20493;-62
2021/11/16 02:58:32;;;;;;;36.42;16.35;;;;;;;14.71;48.50;102138.66;5056173;28;20432;-62
2021/11/16 03:01:06;;;;;;;38.03;16.88;;;;;;;14.71;49.44;102137.78;5056120;28;20108;-62
2021/11/16 03:03:31;;;;;;;34.50;15.25;;;;;;;14.69;49.79;102134.31;5038843;28;20123;-61
2021/11/16 03:05:57;;;;;;;36.75;16.65;;;;;;;14.67;48.93;102129.06;5054680;28;20049;-62
2021/11/16 03:08:25;;;;;;;38.35;15.25;;;;;;;14.70;48.79;102138.75;5054950;28;20020;-61
2021/11/16 03:10:57;;;;;;;32.58;15.25;;;;;;;14.66;48.75;102127.34;5038564;28;20025;-62
2021/11/16 03:13:23;;;;;;;37.47;16.08;;;;;;;14.73;48.64;102135.81;5055883;28;20059;-62
2021/11/16 03:15:49;;;;;;;39.63;15.95;;;;;;;14.73;49.84;102130.41;5056046;28;20024;-62
2021/11/16 03:18:15;;;;;;;37.13;16.15;;;;;;;14.72;48.70;102134.94;5054688;28;20033;-61
2021/11/16 03:20:41;;;;;;;39.00;15.15;;;;;;;14.68;49.73;102132.63;5055777;28;20025;-62
2021/11/16 03:23:16;;;;;;;36.78;15.18;;;;;;;14.70;48.97;102130.66;5055713;28;20083;-62
2021/11/16 03:25:54;;;;;;;40.33;15.98;;;;;;;14.73;48.63;102133.09;5055583;28;20021;-62
2021/11/16 03:28:21;;;;;;;36.15;15.13;;;;;;;14.72;49.92;102120.59;5039079;28;20040;-61
2021/11/16 03:30:51;;;;;;;43.80;17.48;;;;;;;14.72;49.37;102117.91;5038090;28;20029;-62
2021/11/16 03:33:19;;;;;;;35.65;15.75;;;;;;;14.73;48.62;102123.19;5056300;28;20045;-62
2021/11/16 03:35:45;;;;;;;33.17;14.50;;;;;;;14.74;49.27;102126.75;5054389;28;20033;-61
2021/11/16 03:38:11;;;;;;;38.47;16.50;;;;;;;14.73;50.18;102119.63;5055292;28;20104;-62
2021/11/16 03:40:38;;;;;;;37.47;15.57;;;;;;;14.73;48.65;102125.00;5055021;28;20070;-62
2021/11/16 03:43:05;;;;;;;37.80;16.30;;;;;;;14.73;48.71;102119.63;5053846;28;20028;-62
2021/11/16 03:45:31;;;;;;;31.90;14.82;;;;;;;14.75;49.08;102128.44;5054088;28;20107;-61
2021/11/16 03:47:57;;;;;;;37.03;16.33;;;;;;;14.72;48.95;102113.38;5054111;28;20067;-62
2021/11/16 03:50:25;;;;;;;32.58;14.00;;;;;;;14.73;49.58;102125.00;5055325;28;20170;-62
2021/11/16 03:52:56;;;;;;;34.00;14.93;;;;;;;14.73;48.71;102130.41;5053964;28;20036;-61
2021/11/16 03:55:28;;;;;;;40.40;17.45;;;;;;;14.72;49.01;102120.59;5055017;28;20103;-62
2021/11/16 03:57:55;;;;;;;41.95;16.35;;;;;;;14.69;48.74;102113.63;5053857;28;20111;-62
2021/11/16 04:00:38;;;;;;;32.72;14.30;;;;;;;14.71;48.83;102108.97;5054974;28;20434;-62
2021/11/16 04:03:04;;;;;;;32.22;14.68;;;;;;;14.71;49.05;102116.19;5054102;28;20100;-62
2021/11/16 04:05:30;;;;;;;32.97;14.68;;;;;;;14.71;49.00;102116.19;5054552;28;20032;-62
2021/11/16 04:07:56;;;;;;;33.75;14.95;;;;;;;14.68;49.78;102111.91;5053860;28;20390;-62
2021/11/16 04:10:23;;;;;;;33.40;16.00;;;;;;;14.69;48.79;102123.53;5054025;28;20362;-62
2021/11/16 04:12:49;;;;;;;35.72;16.23;;;;;;;14.70;49.52;102119.88;5054932;28;20092;-62
2021/11/16 04:15:15;;;;;;;32.60;16.08;;;;;;;14.65;49.17;102122.09;5053321;28;20060;-61
2021/11/16 04:17:43;;;;;;;34.97;16.00;;;;;;;14.69;48.92;102128.94;5054789;28;20094;-61
2021/11/16 04:20:17;;;;;;;41.35;15.00;;;;;;;14.68;50.25;102122.69;5053634;28;20029;-61
2021/11/16 04:22:43;;;;;;;42.58;15.70;;;;;;;14.68;49.67;102116.44;5053500;28;20582;-62
2021/11/16 04:25:10;;;;;;;36.55;16.10;;;;;;;14.69;48.85;102120.84;5053594;28;20056;-62
2021/11/16 04:27:35;;;;;;;33.28;15.13;;;;;;;14.68;48.43;102119.16;5054690;28;20021;-61
2021/11/16 04:30:01;;;;;;;32.83;14.05;;;;;;;14.70;48.97;102119.88;5036929;28;20066;-62
2021/11/16 04:32:27;;;;;;;33.78;14.68;;;;;;;14.69;49.39;102115.44;5054905;28;20039;-62
2021/11/16 04:34:52;;;;;;;42.05;15.98;;;;;;;14.69;48.86;102119.00;5053163;28;20044;-62
2021/11/16 04:37:18;;;;;;;37.08;15.35;;;;;;;14.70;48.88;102125.25;5054308;28;20021;-62
2021/11/16 04:39:43;;;;;;;36.10;15.93;;;;;;;14.66;48.94;102115.69;5053901;28;20033;-62
2021/11/16 04:42:09;;;;;;;33.95;14.68;;;;;;;14.65;49.06;102112.16;5054833;28;20025;-62
2021/11/16 04:44:36;;;;;;;36.17;14.90;;;;;;;14.68;49.12;102124.53;5053290;28;20390;-62
2021/11/16 04:47:02;;;;;;;30.98;14.85;;;;;;;14.66;49.30;102119.25;5054270;28;20028;-61
2021/11/16 04:49:35;;;;;;;34.25;15.43;;;;;;;14.67;48.97;102122.81;5054188;28;20103;-61
2021/11/16 04:52:10;;;;;;;39.60;16.00;;;;;;;14.68;49.27;102116.44;5037349;28;20025;-61
2021/11/16 07:49:51;;;;;;;45.13;16.35;;;;;;;14.57;50.53;102153.22;5038341;28;20127;-62
2021/11/16 07:52:26;;;;;;;42.97;16.70;;;;;;;14.56;49.56;102151.50;5054795;28;20069;-62
2021/11/16 07:54:52;;;;;;;42.13;16.52;;;;;;;14.58;49.23;102160.31;5055635;28;20021;-62
2021/11/16 07:57:17;;;;;;;38.70;15.55;;;;;;;14.59;50.43;102158.50;5053743;28;20056;-62
2021/11/16 07:59:42;;;;;;;43.92;16.67;;;;;;;14.60;49.57;102151.28;5053742;28;20040;-62
2021/11/16 08:02:18;;;;;;;41.40;16.00;;;;;;;14.58;48.72;102149.53;5054836;28;20497;-62
2021/11/16 08:04:52;;;;;;;44.05;16.25;;;;;;;14.57;49.14;102153.22;5055365;28;20025;-62
2021/11/16 08:07:47;;;;;;;46.85;17.05;;;;;;;14.60;49.58;102156.66;5055003;28;20029;-62
2021/11/16 08:10:21;;;;;;;42.47;16.10;;;;;;;14.62;48.71;102154.69;5053570;28;20059;-62
2021/11/16 08:12:48;;;;;;;42.90;17.52;;;;;;;14.62;48.75;102149.31;5053984;28;20120;-62
2021/11/16 08:15:14;;;;;;;46.88;17.30;;;;;;;14.58;49.29;102149.53;5037014;28;20033;-63
2021/11/16 08:17:40;;;;;;;36.60;14.63;;;;;;;14.57;50.22;102153.22;5054768;28;20036;-62
2021/11/16 08:20:10;;;;;;;40.03;16.05;;;;;;;14.60;49.01;102151.28;5055035;28;20036;-62
2021/11/16 08:22:35;;;;;;;39.50;15.93;;;;;;;14.61;49.79;102159.22;5054949;28;20385;-63
2021/11/16 08:25:02;;;;;;;48.47;17.35;;;;;;;14.64;49.23;102158.13;5054472;28;20033;-62
2021/11/16 08:27:33;;;;;;;45.55;17.27;;;;;;;14.63;49.01;102151.03;5054357;28;20075;-62
2021/11/16 08:30:03;;;;;;;42.53;17.63;;;;;;;14.62;50.51;102154.69;5036836;28;20127;-62
2021/11/16 08:32:34;;;;;;;43.03;16.95;;;;;;;14.63;49.64;102157.25;5054435;28;20024;-62
2021/11/16 08:35:02;;;;;;;44.58;16.80;;;;;;;14.65;49.82;102149.06;5054674;28;20039;-63
2021/11/16 08:37:36;;;;;;;41.22;18.52;;;;;;;14.66;50.68;102148.06;5053241;28;20024;-62
2021/11/16 08:40:05;;;;;;;42.58;16.10;;;;;;;14.67;49.04;102157.88;5054413;28;20021;-62
2021/11/16 08:42:33;;;;;;;45.50;16.77;;;;;;;14.67;50.00;102156.03;5054384;28;20039;-62
2021/11/16 08:45:05;;;;;;;56.97;18.30;;;;;;;14.69;50.34;102158.59;5053281;28;20505;-63
2021/11/16 08:47:36;;;;;;;50.17;17.77;;;;;;;14.68;49.24;102149.69;5054309;28;20052;-63
2021/11/16 08:50:32;;;;;;;47.58;18.17;;;;;;;14.69;49.80;102150.50;5054728;28;20468;-62
2021/11/16 08:53:02;;;;;;;45.80;17.80;;;;;;;14.66;49.43;102151.63;5054172;28;20028;-62
2021/11/16 08:55:31;;;;;;;47.90;18.58;;;;;;;14.68;50.26;102143.41;5052915;28;20123;-62
2021/11/16 08:57:58;;;;;;;50.17;17.63;;;;;;;14.70;50.54;102146.84;5054198;28;20119;-63
2021/11/16 09:00:34;;;;;;;47.65;18.35;;;;;;;14.70;49.53;102142.31;5054301;28;20500;-62
2021/11/16 09:03:10;;;;;;;44.60;17.48;;;;;;;14.70;48.84;102139.59;5054170;28;20359;-63
2021/11/16 09:05:43;;;;;;;49.38;16.90;;;;;;;14.71;49.37;102127.84;5052796;28;20493;-61
2021/11/16 09:08:25;;;;;;;44.28;16.20;;;;;;;14.71;50.10;102127.00;5054140;28;20075;-62
2021/11/16 09:10:57;;;;;;;44.47;17.58;;;;;;;14.73;49.91;102135.81;5052430;28;20086;-63
2021/11/16 09:13:24;;;;;;;44.78;16.30;;;;;;;14.74;49.54;102132.13;5054026;28;20025;-62
2021/11/16 09:16:02;;;;;;;50.47;16.73;;;;;;;14.75;48.86;102131.13;5054233;28;20123;-63
2021/11/16 09:18:36;;;;;;;48.42;17.33;;;;;;;14.70;48.93;102120.72;5054479;28;20070;-62
2021/11/16 09:21:03;;;;;;;48.13;16.48;;;;;;;14.75;49.19;102129.31;5052958;28;20420;-62
2021/11/16 09:23:32;;;;;;;45.50;17.33;;;;;;;14.74;49.06;102126.75;5053081;28;20044;-63
2021/11/16 09:26:05;;;;;;;46.55;17.63;;;;;;;14.70;49.85;102119.88;5054393;28;20029;-62
2021/11/16 09:28:38;;;;;;;40.72;15.88;;;;;;;14.75;50.47;102133.84;5054023;28;20099;-62
2021/11/16 09:31:18;;;;;;;45.85;16.17;;;;;;;14.74;50.38;102132.13;5052547;28;20025;-62
2021/11/16 09:33:43;;;;;;;42.40;15.70;;;;;;;14.71;50.43;102121.59;5053992;28;20025;-62
2021/11/16 09:36:09;;;;;;;37.75;14.85;;;;;;;14.70;48.78;102126.13;5052611;28;20033;-62
2021/11/16 09:38:46;;;;;;;44.60;16.35;;;;;;;14.68;50.28;102130.78;5053590;28;20411;-62
2021/11/16 09:41:17;;;;;;;39.65;15.65;;;;;;;14.66;49.33;102123.78;5053593;28;20393;-62
2021/11/16 09:43:42;;;;;;;40.28;15.13;;;;;;;14.67;50.33;102120.13;5052771;28;20103;-63
2021/11/16 10:15:56;;;;;;;46.75;15.85;;;;;;;14.70;50.41;102103.69;5150001;22;20479;-60
2021/11/16 10:18:23;;;;;;;49.63;17.40;;;;;;;14.65;48.77;102089.72;5016763;28;20489;-61
2021/11/16 10:20:51;;;;;;;43.38;16.80;;;;;;;14.71;50.32;102090.09;5031878;28;20033;-62
2021/11/16 10:23:39;;;;;;;54.10;17.40;;;;;;;14.72;50.24;102094.47;5016516;28;20482;-62
2021/11/16 10:26:06;;;;;;;47.63;17.38;;;;;;;14.67;48.65;102082.34;5015867;28;20018;-62
2021/11/16 10:28:32;;;;;;;41.97;15.02;;;;;;;14.72;50.22;102093.63;5016909;28;20034;-62
2021/11/16 10:30:59;;;;;;;41.60;17.23;;;;;;;14.69;48.99;102080.38;5016232;28;20072;-62
2021/11/16 10:33:27;;;;;;;51.78;17.23;;;;;;;14.69;50.06;102075.84;5016624;28;20384;-62
2021/11/16 10:35:57;;;;;;;41.35;15.65;;;;;;;14.75;50.23;102080.75;5016448;28;20049;-62
2021/11/16 10:38:26;;;;;;;40.47;16.58;;;;;;;14.77;49.73;102076.06;5016944;28;20041;-62
2021/11/16 10:40:53;;;;;;;48.28;15.70;;;;;;;14.78;48.61;102074.25;5016661;28;20037;-62
2021/11/16 10:43:19;;;;;;;38.22;13.60;;;;;;;14.82;49.47;102075.72;5016307;28;20026;-62
2021/11/16 10:45:48;;;;;;;46.78;16.25;;;;;;;14.82;49.87;102075.72;5031498;28;20032;-62
2021/11/16 10:48:16;;;;;;;45.38;17.33;;;;;;;14.83;49.04;102072.03;5016186;28;20109;-61
2021/11/16 10:50:46;;;;;;;38.63;15.13;;;;;;;14.86;50.06;102078.03;5016333;28;20425;-61
2021/11/16 10:53:16;;;;;;;41.70;15.48;;;;;;;14.86;48.55;102074.47;5016084;28;20109;-62
2021/11/16 10:55:56;;;;;;;39.40;14.73;;;;;;;14.88;50.26;102069.81;5014729;28;20084;-62
2021/11/16 10:58:33;;;;;;;43.28;15.60;;;;;;;14.88;49.11;102064.44;5016067;28;20513;-62
2021/11/16 11:01:14;;;;;;;40.67;15.85;;;;;;;14.88;49.03;102056.34;5015813;28;20030;-62
2021/11/16 11:03:44;;;;;;;42.00;14.35;;;;;;;14.89;50.14;102060.72;5015856;28;20025;-62
2021/11/16 11:06:20;;;;;;;41.20;15.65;;;;;;;14.88;49.22;102050.94;5030851;28;20025;-62
2021/11/16 11:09:03;;;;;;;43.65;16.38;;;;;;;14.92;49.21;102049.69;5015847;28;20026;-62
2021/11/16 11:11:29;;;;;;;41.58;15.65;;;;;;;14.92;49.51;102050.53;5015829;28;20030;-62
2021/11/16 11:14:18;;;;;;;41.20;15.75;;;;;;;14.96;48.56;102054.69;5015733;28;20029;-62
2021/11/16 11:16:56;;;;;;;40.72;15.27;;;;;;;14.97;49.80;102058.25;4995673;28;20141;-62
2021/11/16 11:19:31;;;;;;;42.55;16.35;;;;;;;14.94;49.50;102042.31;5011210;28;20026;-61
2021/11/16 11:22:06;;;;;;;47.80;16.42;;;;;;;15.02;49.97;102050.63;4978781;28;20018;-62
2021/11/16 11:24:42;;;;;;;48.38;16.92;;;;;;;15.05;49.98;102043.13;4994584;28;20081;-62
2021/11/16 11:29:57;;;;;;;43.92;16.90;;;;;;;15.07;49.99;102043.03;4994753;28;20501;-62
2021/11/16 11:32:24;;;;;;;35.17;14.73;;;;;;;15.06;49.82;102038.59;5003767;28;20645;-62
2021/11/16 11:34:58;;;;;;;38.47;13.77;;;;;;;15.01;50.19;102030.91;4992502;28;20018;-62
2021/11/16 11:37:31;;;;;;;37.42;15.27;;;;;;;15.04;48.36;102032.50;4993143;28;20054;-62
2021/11/16 11:39:59;;;;;;;41.33;14.55;;;;;;;15.03;48.93;102033.47;4994655;28;20118;-62
2021/11/16 11:42:26;;;;;;;38.45;13.77;;;;;;;15.04;49.53;102024.38;4994644;28;20382;-62
2021/11/16 11:45:06;;;;;;;37.58;13.45;;;;;;;15.01;49.11;102017.41;4993358;28;20030;-63
2021/11/16 11:47:32;;;;;;;35.78;14.15;;;;;;;15.07;48.45;102024.13;4994835;28;20022;-62
2021/11/16 11:50:02;;;;;;;36.42;13.38;;;;;;;15.10;49.80;102026.59;4994502;28;20030;-63
2021/11/16 11:52:27;;;;;;;36.03;12.80;;;;;;;15.07;49.02;102016.03;5009423;28;20117;-62
2021/11/16 11:54:53;;;;;;;42.08;15.25;;;;;;;15.11;48.86;102017.47;4994183;28;20497;-62
2021/11/16 11:57:18;;;;;;;28.65;12.40;;;;;;;15.16;49.83;102026.03;4994018;28;20028;-61
2021/11/16 11:59:44;;;;;;;34.90;13.57;;;;;;;15.17;49.16;102022.38;4994178;28;20112;-62
2021/11/16 12:02:11;;;;;;;39.13;14.02;;;;;;;15.18;48.32;102018.69;4995322;28;20038;-63
2021/11/16 12:04:38;;;;;;;29.40;12.52;;;;;;;15.20;48.66;102021.25;4994306;28;20026;-62
2021/11/16 12:07:05;;;;;;;27.42;11.48;;;;;;;15.18;49.35;102013.28;4993818;28;20026;-62
2021/11/16 12:09:30;;;;;;;32.15;12.45;;;;;;;15.19;48.26;102014.97;4977580;28;20022;-62
2021/11/16 12:11:57;;;;;;;27.52;11.45;;;;;;;15.23;49.65;102024.53;4995008;28;20355;-61
2021/11/16 12:14:35;;;;;;;29.67;13.27;;;;;;;15.25;48.88;102029.81;4993624;28;20061;-62
2021/11/16 12:17:07;;;;;;;30.30;11.35;;;;;;;15.25;49.75;102030.66;4993107;28;20046;-62
2021/11/16 12:19:41;;;;;;;30.17;11.77;;;;;;;15.21;50.14;102010.34;4994718;28;20033;-62
2021/11/16 12:22:28;;;;;;;29.15;10.30;;;;;;;15.24;49.74;102012.78;5010328;28;20026;-62
2021/11/16 12:25:23;;;;;;;27.90;11.60;;;;;;;15.27;49.14;102001.69;4994677;28;20034;-62
2021/11/16 12:27:48;;;;;;;26.23;11.45;;;;;;;15.25;49.01;101992.88;5001108;28;20084;-60
2021/11/16 12:30:21;;;;;;;31.30;12.40;;;;;;;15.27;49.36;101990.06;4993546;28;20485;-62
2021/11/16 12:32:51;;;;;;;28.90;11.35;;;;;;;15.31;49.53;102002.28;4993324;28;20085;-61
2021/11/16 12:35:20;;;;;;;26.38;10.25;;;;;;;15.31;49.29;101997.75;4994898;28;20022;-61
2021/11/16 12:37:54;;;;;;;24.42;10.45;;;;;;;15.33;49.98;102001.16;4994808;28;20108;-62
2021/11/16 12:40:40;;;;;;;22.52;10.43;;;;;;;15.32;48.65;101999.47;4994907;28;20085;-63
2021/11/16 12:43:15;;;;;;;22.17;8.93;;;;;;;15.30;48.82;101985.22;4994794;28;20044;-63
2021/11/16 12:45:49;;;;;;;21.48;8.77;;;;;;;15.34;49.68;101992.09;4993653;28;20489;-62
2021/11/16 12:48:17;;;;;;;19.38;8.13;;;;;;;15.35;49.18;101992.97;4994482;28;20033;-62
2021/11/16 12:51:05;;;;;;;17.90;7.05;;;;;;;15.34;48.33;101984.00;4993418;28;20032;-62
2021/11/16 12:53:59;;;;;;;21.50;8.68;;;;;;;15.33;48.53;101981.41;4994908;28;20471;-61
2021/11/16 12:56:48;;;;;;;24.70;8.88;;;;;;;15.31;49.96;101981.56;4994466;28;20105;-62
2021/11/16 12:59:34;;;;;;;28.05;10.13;;;;;;;15.32;48.49;101977.88;4993512;28;20080;-62
2021/11/16 13:02:03;;;;;;;27.63;10.35;;;;;;;15.33;49.01;101979.56;4994363;28;20026;-62
2021/11/16 13:04:41;;;;;;;34.25;11.57;;;;;;;15.33;48.60;101982.28;4994509;28;20097;-62
2021/11/16 13:07:41;;;;;;;26.77;11.40;;;;;;;15.34;48.39;101980.44;4994611;28;20049;-62
2021/11/16 13:10:13;;;;;;;25.48;10.45;;;;;;;15.29;49.06;101967.34;4993988;28;20378;-61
2021/11/16 13:12:44;;;;;;;32.80;12.70;;;;;;;15.33;48.43;101968.78;4994403;28;20026;-62
2021/11/16 13:15:25;;;;;;;28.52;11.23;;;;;;;15.32;49.73;101967.06;4994279;28;20042;-62
2021/11/16 13:17:55;;;;;;;32.58;12.85;;;;;;;15.33;49.74;101978.72;4994091;28;20074;-62
2021/11/16 13:20:34;;;;;;;31.90;12.00;;;;;;;15.32;48.30;101964.38;4994566;28;20018;-61
2021/11/16 13:23:26;;;;;;;29.25;12.52;;;;;;;15.32;48.23;101971.63;4994643;28;20479;-62
2021/11/16 13:26:08;;;;;;;37.20;13.50;;;;;;;15.28;49.99;101962.91;4993068;28;20026;-61
2021/11/16 13:31:09;;;;;;;33.30;13.10;;;;;;;15.28;48.52;101960.22;4994247;28;20030;-61
2021/11/16 13:33:44;;;;;;;30.83;11.27;;;;;;;15.29;48.56;101961.94;4994539;28;20109;-62
2021/11/16 13:36:13;;;;;;;31.33;11.57;;;;;;;15.24;48.97;101942.59;4993787;28;20030;-61
2021/11/16 13:38:59;;;;;;;31.02;14.15;;;;;;;15.29;49.18;101951.16;4995093;28;20022;-61
2021/11/16 13:41:43;;;;;;;32.78;12.30;;;;;;;15.28;49.89;101949.41;4997668;28;20037;-62
2021/11/16 13:44:10;;;;;;;30.25;11.00;;;;;;;15.25;49.39;101944.28;4997687;28;20022;-62
2021/11/16 13:46:37;;;;;;;29.00;11.65;;;;;;;15.22;49.54;101932.88;4997394;28;20023;-62
2021/11/16 13:49:03;;;;;;;28.73;11.82;;;;;;;15.25;49.57;101944.28;4997777;28;20054;-62
2021/11/16 13:51:28;;;;;;;32.78;12.75;;;;;;;15.25;48.42;101941.59;4997297;28;20497;-62
2021/11/16 13:54:00;;;;;;;30.80;12.43;;;;;;;15.19;48.65;101928.59;4997792;28;20475;-61
2021/11/16 13:56:29;;;;;;;34.78;13.05;;;;;;;15.24;49.16;101939.03;4996698;28;20363;-61
2021/11/16 13:58:55;;;;;;;31.80;11.90;;;;;;;15.26;48.50;101946.00;4996340;28;20041;-62
2021/11/16 14:01:32;;;;;;;27.08;12.20;;;;;;;15.26;49.60;101935.22;4997376;28;20034;-62
2021/11/16 14:04:17;;;;;;;28.92;11.15;;;;;;;15.22;49.33;101932.88;4996423;28;20538;-62
2021/11/16 14:06:43;;;;;;;23.73;10.00;;;;;;;15.19;48.62;101928.59;4997799;28;20023;-62
2021/11/16 14:09:22;;;;;;;32.28;11.85;;;;;;;15.18;48.91;101932.31;4996400;28;20046;-62
2021/11/16 14:11:56;;;;;;;30.50;11.02;;;;;;;15.21;48.90;101934.75;4995748;28;20018;-61
2021/11/16 14:14:25;;;;;;;26.20;11.25;;;;;;;15.17;49.61;101919.78;4997574;28;20065;-62
2021/11/16 14:16:52;;;;;;;26.88;10.18;;;;;;;15.18;49.07;101921.53;5011992;28;20406;-62
2021/11/16 14:19:19;;;;;;;28.85;10.80;;;;;;;15.15;48.23;101919.94;4997154;28;20022;-62
2021/11/16 14:21:45;;;;;;;23.90;10.27;;;;;;;15.17;48.41;101925.19;4997044;28;20030;-62
2021/11/16 14:24:13;;;;;;;25.75;9.90;;;;;;;15.16;49.78;101923.47;4996088;28;20395;-62
2021/11/16 14:26:40;;;;;;;22.27;10.02;;;;;;;15.16;48.09;101928.88;4997235;28;20022;-62
2021/11/16 14:29:06;;;;;;;25.30;9.68;;;;;;;15.16;48.34;101934.25;4995554;28;20019;-62
2021/11/16 14:31:34;;;;;;;25.88;10.00;;;;;;;15.13;48.66;101921.91;4996876;28;20085;-62
2021/11/16 14:34:02;;;;;;;23.85;9.40;;;;;;;15.14;49.47;101925.44;4995710;28;20036;-62
2021/11/16 14:36:33;;;;;;;27.23;9.80;;;;;;;15.03;49.64;101906.63;4997017;28;20030;-61
2021/11/16 14:39:09;;;;;;;27.48;12.18;;;;;;;15.11;49.16;101920.31;4995413;28;20475;-62
2021/11/16 14:41:45;;;;;;;27.77;10.27;;;;;;;15.11;49.05;101917.63;4996911;28;20499;-62
2021/11/16 14:44:12;;;;;;;26.38;9.63;;;;;;;15.11;48.56;101920.31;4996597;28;20022;-62
2021/11/16 14:46:38;;;;;;;26.23;9.98;;;;;;;15.10;49.47;101915.94;4996496;28;20099;-62
2021/11/16 14:49:06;;;;;;;34.50;10.70;;;;;;;15.10;48.50;101924.03;5011175;28;20065;-62
2021/11/16 14:51:45;;;;;;;25.77;10.38;;;;;;;15.09;49.17;101923.16;4996695;28;20037;-62
2021/11/16 14:54:12;;;;;;;28.33;10.10;;;;;;;15.04;49.08;101913.75;4995364;28;20022;-62